createdAt,value
2018-09-20T00:01:35.717Z,0.90
2018-09-20T00:04:06.695Z,0.80
2018-09-20T00:06:37.857Z,0.93
2018-09-20T00:09:10.247Z,1.10
2018-09-20T00:11:41.255Z,0.90
2018-09-20T00:14:12.233Z,0.90
2018-09-20T00:16:43.260Z,1.13
2018-09-20T00:19:14.404Z,0.80
2018-09-20T00:21:45.392Z,0.60
2018-09-20T00:24:16.304Z,1.10
2018-09-20T00:26:47.281Z,1.00
2018-09-20T00:29:18.198Z,0.87
2018-09-20T00:31:49.281Z,1.30
2018-09-20T00:34:20.380Z,1.00
2018-09-20T00:36:51.468Z,1.10
2018-09-20T00:39:22.662Z,1.23
2018-09-20T00:41:53.812Z,1.20
2018-09-20T00:44:25.361Z,1.20
2018-09-20T00:46:56.312Z,1.40
2018-09-20T00:49:27.527Z,1.20
2018-09-20T00:51:58.756Z,1.27
2018-09-20T00:54:30.158Z,1.03
2018-09-20T00:57:01.846Z,1.10
2018-09-20T00:59:33.002Z,1.27
2018-09-20T01:02:04.529Z,1.37
2018-09-20T01:04:35.748Z,1.37
2018-09-20T01:07:06.847Z,1.97
2018-09-20T01:09:52.618Z,2.03
2018-09-20T01:12:23.642Z,2.30
2018-09-20T01:14:54.624Z,1.80
2018-09-20T01:17:25.658Z,1.50
2018-09-20T01:19:56.828Z,1.50
2018-09-20T01:22:27.846Z,2.30
2018-09-20T01:24:58.822Z,2.70
2018-09-20T01:27:29.881Z,2.43
2018-09-20T01:30:01.249Z,2.33
2018-09-20T01:32:32.250Z,2.50
2018-09-20T01:35:03.353Z,1.93
2018-09-20T01:37:48.644Z,1.47
2018-09-20T01:40:19.614Z,0.87
2018-09-20T01:42:50.633Z,1.17
2018-09-20T01:45:21.588Z,1.17
2018-09-20T01:47:52.876Z,1.10
2018-09-20T01:50:23.859Z,1.50
2018-09-20T01:52:55.109Z,1.70
2018-09-20T01:55:26.286Z,1.30
2018-09-20T01:57:58.070Z,1.50
2018-09-20T02:00:28.978Z,1.20
2018-09-20T02:02:59.952Z,1.70
2018-09-20T02:05:31.020Z,1.80
2018-09-20T02:08:01.996Z,1.80
2018-09-20T02:10:32.968Z,1.60
2018-09-20T02:13:04.241Z,2.47
2018-09-20T02:15:35.202Z,1.70
2018-09-20T02:18:06.185Z,1.83
2018-09-20T02:20:37.143Z,2.17
2018-09-20T02:23:08.369Z,1.77
2018-09-20T02:25:39.442Z,1.70
2018-09-20T02:28:10.528Z,2.07
2018-09-20T02:30:41.632Z,2.53
2018-09-20T02:33:12.682Z,1.93
2018-09-20T02:35:43.729Z,2.20
2018-09-20T02:38:15.007Z,2.23
2018-09-20T02:40:45.960Z,1.50
2018-09-20T02:43:17.065Z,2.27
2018-09-20T02:48:13.975Z,1.90
2018-09-20T02:50:45.121Z,2.23
2018-09-20T02:53:16.214Z,1.97
2018-09-20T02:55:47.514Z,2.07
2018-09-20T02:58:19.158Z,1.67
2018-09-20T03:00:50.256Z,2.50
2018-09-20T03:03:21.393Z,2.77
2018-09-20T03:05:52.404Z,2.10
2018-09-20T03:08:23.808Z,2.63
2018-09-20T03:10:56.096Z,2.00
2018-09-20T03:13:27.536Z,2.00
2018-09-20T03:15:58.779Z,2.33
2018-09-20T03:18:30.249Z,2.40
2018-09-20T03:21:01.485Z,1.60
2018-09-20T03:23:33.209Z,1.80
2018-09-20T03:26:04.736Z,1.80
2018-09-20T03:28:36.111Z,2.00
2018-09-20T03:31:07.288Z,2.07
2018-09-20T03:33:38.357Z,2.17
2018-09-20T03:36:09.545Z,2.00
2018-09-20T03:38:40.629Z,2.30
2018-09-20T03:41:11.715Z,2.00
2018-09-20T03:43:42.665Z,2.20
2018-09-20T03:46:13.904Z,2.13
2018-09-20T03:48:45.268Z,2.27
2018-09-20T03:51:16.591Z,2.20
2018-09-20T03:53:47.780Z,2.67
2018-09-20T03:56:18.885Z,2.30
2018-09-20T03:58:50.321Z,1.90
2018-09-20T04:01:21.359Z,2.07
2018-09-20T04:03:52.736Z,2.07
2018-09-20T04:06:23.991Z,2.07
2018-09-20T04:08:55.060Z,1.83
2018-09-20T04:11:26.144Z,3.27
2018-09-20T04:13:57.235Z,2.10
2018-09-20T04:16:28.516Z,2.40
2018-09-20T04:19:00.100Z,2.20
2018-09-20T04:21:34.219Z,2.30
2018-09-20T04:24:07.451Z,2.90
2018-09-20T04:26:38.519Z,2.20
2018-09-20T04:29:09.527Z,2.73
2018-09-20T04:31:40.582Z,2.37
2018-09-20T04:34:11.693Z,2.37
2018-09-20T04:36:43.692Z,2.60
2018-09-20T04:39:14.871Z,2.17
2018-09-20T04:41:46.054Z,2.27
2018-09-20T04:44:17.388Z,2.33
2018-09-20T04:46:48.697Z,2.40
2018-09-20T04:49:19.713Z,2.83
2018-09-20T04:51:50.881Z,2.60
2018-09-20T04:56:47.672Z,2.07
2018-09-20T04:59:20.472Z,2.53
2018-09-20T05:01:51.479Z,2.37
2018-09-20T05:04:23.240Z,2.80
2018-09-20T05:06:56.525Z,2.63
2018-09-20T05:09:27.991Z,2.87
2018-09-20T05:12:00.295Z,2.33
2018-09-20T05:14:31.784Z,2.53
2018-09-20T05:17:04.598Z,2.57
2018-09-20T05:19:35.958Z,3.40
2018-09-20T05:22:07.085Z,3.03
2018-09-20T05:24:38.189Z,3.23
2018-09-20T05:27:09.262Z,3.27
2018-09-20T05:29:40.353Z,2.83
2018-09-20T05:32:11.406Z,2.70
2018-09-20T05:34:42.470Z,3.13
2018-09-20T05:37:13.665Z,2.83
2018-09-20T05:39:44.697Z,3.53
2018-09-20T05:42:15.820Z,2.73
2018-09-20T05:44:47.020Z,2.63
2018-09-20T05:47:18.207Z,3.07
2018-09-20T05:49:49.517Z,3.00
2018-09-20T05:52:20.599Z,2.20
2018-09-20T05:54:51.689Z,3.33
2018-09-20T05:57:22.812Z,2.67
2018-09-20T05:59:54.020Z,2.23
2018-09-20T06:02:25.247Z,3.10
2018-09-20T06:04:56.366Z,2.57
2018-09-20T06:07:27.411Z,3.00
2018-09-20T06:09:58.388Z,3.37
2018-09-20T06:12:29.669Z,2.17
2018-09-20T06:15:00.692Z,2.67
2018-09-20T06:17:31.832Z,2.03
2018-09-20T06:20:03.088Z,3.30
2018-09-20T06:22:34.244Z,2.80
2018-09-20T06:25:05.288Z,2.97
2018-09-20T06:27:36.252Z,2.53
2018-09-20T06:30:08.139Z,3.10
2018-09-20T06:32:39.335Z,4.20
2018-09-20T06:35:10.369Z,2.90
2018-09-20T06:37:41.445Z,2.47
2018-09-20T06:40:12.659Z,2.50
2018-09-20T06:42:43.676Z,2.93
2018-09-20T06:45:15.045Z,2.63
2018-09-20T06:47:46.213Z,3.13
2018-09-20T06:50:17.466Z,2.57
2018-09-20T06:52:48.611Z,2.37
2018-09-20T06:55:19.728Z,2.57
2018-09-20T06:57:50.886Z,2.40
2018-09-20T07:00:22.217Z,2.77
2018-09-20T07:02:53.400Z,2.30
2018-09-20T07:05:24.605Z,2.73
2018-09-20T07:07:55.694Z,2.83
2018-09-20T07:10:26.772Z,2.00
2018-09-20T07:12:57.746Z,1.70
2018-09-20T07:15:28.827Z,2.20
2018-09-20T07:17:59.856Z,2.00
2018-09-20T07:20:31.033Z,2.57
2018-09-20T07:23:02.159Z,2.60
2018-09-20T07:25:33.550Z,2.60
2018-09-20T07:28:04.981Z,2.23
2018-09-20T07:30:36.152Z,3.43
2018-09-20T07:33:07.412Z,2.63
2018-09-20T07:35:38.534Z,2.40
2018-09-20T07:38:09.781Z,2.20
2018-09-20T07:40:41.018Z,2.77
2018-09-20T07:43:12.181Z,2.60
2018-09-20T07:45:43.544Z,2.83
2018-09-20T07:48:14.751Z,3.07
2018-09-20T07:50:45.876Z,3.23
2018-09-20T07:53:17.024Z,2.27
2018-09-20T07:55:48.179Z,2.03
2018-09-20T07:58:19.222Z,2.87
2018-09-20T08:00:50.491Z,2.40
2018-09-20T08:03:21.557Z,2.30
2018-09-20T08:05:52.616Z,2.60
2018-09-20T08:08:23.792Z,2.67
2018-09-20T08:10:54.912Z,2.53
2018-09-20T08:13:25.946Z,2.70
2018-09-20T08:15:56.905Z,2.77
2018-09-20T08:18:28.030Z,2.60
2018-09-20T08:20:59.040Z,2.27
2018-09-20T08:23:30.206Z,3.53
2018-09-20T08:26:01.352Z,3.23
2018-09-20T08:28:32.569Z,2.90
2018-09-20T08:31:03.670Z,3.43
2018-09-20T08:33:34.640Z,3.13
2018-09-20T08:36:05.681Z,3.40
2018-09-20T08:38:36.736Z,3.73
2018-09-20T08:41:08.059Z,3.53
2018-09-20T08:43:39.400Z,3.20
2018-09-20T08:46:10.760Z,3.37
2018-09-20T08:48:42.033Z,2.90
2018-09-20T08:51:13.497Z,4.00
2018-09-20T08:53:44.554Z,3.20
2018-09-20T08:56:15.704Z,3.47
2018-09-20T08:58:47.020Z,3.20
2018-09-20T09:01:18.096Z,3.63
2018-09-20T09:03:49.117Z,3.37
2018-09-20T09:06:20.150Z,3.57
2018-09-20T09:08:51.550Z,2.87
2018-09-20T09:11:22.619Z,2.40
2018-09-20T09:13:53.904Z,3.07
2018-09-20T09:16:24.943Z,3.80
2018-09-20T09:18:55.989Z,2.97
2018-09-20T09:21:27.129Z,2.80
2018-09-20T09:23:58.228Z,2.80
2018-09-20T09:26:29.261Z,3.00
2018-09-20T09:29:00.304Z,2.57
2018-09-20T09:31:31.466Z,2.67
2018-09-20T09:34:02.695Z,2.80
2018-09-20T09:36:33.720Z,3.20
2018-09-20T09:39:06.352Z,2.37
2018-09-20T09:41:37.429Z,2.10
2018-09-20T09:44:08.527Z,2.53
2018-09-20T09:46:39.545Z,2.80
2018-09-20T09:49:10.755Z,1.70
2018-09-20T09:51:41.893Z,2.47
2018-09-20T09:54:13.018Z,2.60
2018-09-20T09:56:44.140Z,2.83
2018-09-20T09:59:15.653Z,2.83
2018-09-20T10:01:46.917Z,2.23
2018-09-20T10:04:17.925Z,2.53
2018-09-20T10:06:48.909Z,2.33
2018-09-20T10:09:19.953Z,2.87
2018-09-20T10:11:50.974Z,1.50
2018-09-20T10:14:21.954Z,2.77
2018-09-20T10:16:53.103Z,2.60
2018-09-20T10:19:24.149Z,2.37
2018-09-20T10:21:55.325Z,2.47
2018-09-20T10:24:26.605Z,2.60
2018-09-20T10:26:57.765Z,3.50
2018-09-20T10:29:29.084Z,2.47
2018-09-20T10:32:00.075Z,3.17
2018-09-20T10:34:31.193Z,2.50
2018-09-20T10:37:02.392Z,2.23
2018-09-20T10:39:33.608Z,2.33
2018-09-20T10:42:04.745Z,2.83
2018-09-20T10:44:35.859Z,2.23
2018-09-20T10:47:07.097Z,2.07
2018-09-20T10:49:38.257Z,2.60
2018-09-20T10:52:09.491Z,2.83
2018-09-20T10:54:40.624Z,3.63
2018-09-20T10:57:11.708Z,2.57
2018-09-20T10:59:42.793Z,2.07
2018-09-20T11:02:13.976Z,2.27
2018-09-20T11:04:45.383Z,2.17
2018-09-20T11:07:16.816Z,1.77
2018-09-20T11:09:48.024Z,2.33
2018-09-20T11:12:19.142Z,2.60
2018-09-20T11:14:50.204Z,2.40
2018-09-20T11:17:21.303Z,2.63
2018-09-20T11:19:52.348Z,2.47
2018-09-20T11:22:23.400Z,2.43
2018-09-20T11:24:54.505Z,1.87
2018-09-20T11:27:25.593Z,2.33
2018-09-20T11:29:56.834Z,2.23
2018-09-20T11:32:28.141Z,2.23
2018-09-20T11:34:59.459Z,3.67
2018-09-20T11:37:30.719Z,2.53
2018-09-20T11:40:01.805Z,2.10
2018-09-20T11:42:33.133Z,2.20
2018-09-20T11:45:04.588Z,2.00
2018-09-20T11:47:35.786Z,2.07
2018-09-20T11:50:07.552Z,2.57
2018-09-20T11:52:38.836Z,1.97
2018-09-20T11:55:10.072Z,1.93
2018-09-20T11:57:41.276Z,2.30
2018-09-20T12:00:12.754Z,2.63
2018-09-20T12:05:17.940Z,1.57
2018-09-20T12:07:49.197Z,2.57
2018-09-20T12:10:20.685Z,2.80
2018-09-20T12:12:51.993Z,2.43
2018-09-20T12:15:23.177Z,2.27
2018-09-20T12:17:54.357Z,2.70
2018-09-20T12:20:25.407Z,1.50
2018-09-20T12:22:56.752Z,2.07
2018-09-20T12:25:27.815Z,2.23
2018-09-20T12:27:58.894Z,1.77
2018-09-20T12:30:30.010Z,2.33
2018-09-20T12:33:01.277Z,2.47
2018-09-20T12:35:32.477Z,1.87
2018-09-20T12:38:03.693Z,2.10
2018-09-20T12:40:34.949Z,1.93
2018-09-20T12:43:06.160Z,1.60
2018-09-20T12:45:37.362Z,2.17
2018-09-20T12:48:08.735Z,1.93
2018-09-20T12:50:39.872Z,2.43
2018-09-20T12:53:11.148Z,2.10
2018-09-20T12:55:42.235Z,2.27
2018-09-20T12:58:13.236Z,2.70
2018-09-20T13:00:44.381Z,2.47
2018-09-20T13:03:15.640Z,3.17
2018-09-20T13:05:46.912Z,2.77
2018-09-20T13:08:18.004Z,1.80
2018-09-20T13:10:49.050Z,3.00
2018-09-20T13:13:20.464Z,2.73
2018-09-20T13:15:51.528Z,2.37
2018-09-20T13:18:22.625Z,2.50
2018-09-20T13:20:53.660Z,2.07
2018-09-20T13:23:24.830Z,2.30
2018-09-20T13:25:55.826Z,1.97
2018-09-20T13:28:26.873Z,2.07
2018-09-20T13:30:57.984Z,2.20
2018-09-20T13:33:29.053Z,2.03
2018-09-20T13:36:00.164Z,2.20
2018-09-20T13:38:31.325Z,1.97
2018-09-20T13:41:02.416Z,1.90
2018-09-20T13:43:33.661Z,2.03
2018-09-20T13:46:04.948Z,1.90
2018-09-20T13:48:36.156Z,2.00
2018-09-20T13:51:07.316Z,2.00
2018-09-20T13:53:38.463Z,1.93
2018-09-20T13:56:09.772Z,1.77
2018-09-20T13:58:42.130Z,2.00
2018-09-20T14:01:13.492Z,2.07
2018-09-20T14:03:44.784Z,1.47
2018-09-20T14:06:16.294Z,2.33
2018-09-20T14:08:47.904Z,2.77
2018-09-20T14:11:18.988Z,2.53
2018-09-20T14:13:50.088Z,2.73
2018-09-20T14:16:21.389Z,2.40
2018-09-20T14:18:52.632Z,2.70
2018-09-20T14:21:24.041Z,2.83
2018-09-20T14:23:55.580Z,2.70
2018-09-20T14:26:27.233Z,2.70
2018-09-20T14:28:58.372Z,2.77
2018-09-20T14:31:29.485Z,2.83
2018-09-20T14:34:00.620Z,2.67
2018-09-20T14:36:31.799Z,2.80
2018-09-20T14:39:02.897Z,2.50
2018-09-20T14:41:34.362Z,2.87
2018-09-20T14:44:05.748Z,3.90
2018-09-20T14:46:37.069Z,2.50
2018-09-20T14:49:08.272Z,2.30
2018-09-20T14:51:39.348Z,3.00
2018-09-20T14:54:10.389Z,3.43
2018-09-20T14:56:41.431Z,3.73
2018-09-20T14:59:12.540Z,4.20
2018-09-20T15:01:43.580Z,3.80
2018-09-20T15:04:14.596Z,3.70
2018-09-20T15:06:45.657Z,3.33
2018-09-20T15:09:16.744Z,4.83
2018-09-20T15:11:47.879Z,4.33
2018-09-20T15:14:19.133Z,3.77
2018-09-20T15:16:50.171Z,4.43
2018-09-20T15:19:23.412Z,4.93
2018-09-20T15:21:54.444Z,4.10
2018-09-20T15:24:25.481Z,4.63
2018-09-20T15:26:57.772Z,5.03
2018-09-20T15:29:29.205Z,4.73
2018-09-20T15:32:00.382Z,5.00
2018-09-20T15:34:31.497Z,4.10
2018-09-20T15:37:02.479Z,4.97
2018-09-20T15:39:33.532Z,4.60
2018-09-20T15:42:04.537Z,4.60
2018-09-20T15:44:35.605Z,4.80
2018-09-20T15:47:06.873Z,4.10
2018-09-20T15:49:38.124Z,5.27
2018-09-20T15:52:09.217Z,4.83
2018-09-20T15:54:40.417Z,4.63
2018-09-20T15:57:11.742Z,5.73
2018-09-20T15:59:42.969Z,5.17
2018-09-20T16:02:13.973Z,6.27
2018-09-20T16:04:45.032Z,6.17
2018-09-20T16:07:16.052Z,6.07
2018-09-20T16:09:47.077Z,5.47
2018-09-20T16:12:26.428Z,4.70
2018-09-20T16:14:57.824Z,5.53
2018-09-20T16:20:16.212Z,4.57
2018-09-20T16:28:39.193Z,5.20
2018-09-20T16:31:21.353Z,5.73
2018-09-20T16:34:35.691Z,5.27
2018-09-20T16:39:47.128Z,4.93
2018-09-20T16:42:20.940Z,5.37
2018-09-20T16:44:52.298Z,5.20
2018-09-20T16:47:23.431Z,4.37
2018-09-20T16:49:54.572Z,4.37
2018-09-20T16:52:25.836Z,4.13
2018-09-20T16:54:57.158Z,4.60
2018-09-20T16:57:28.276Z,4.30
2018-09-20T16:59:59.336Z,4.30
2018-09-20T17:02:30.307Z,4.47
2018-09-20T17:05:01.510Z,4.67
2018-09-20T17:07:32.588Z,4.70
2018-09-20T17:10:03.917Z,4.03
2018-09-20T17:12:35.477Z,5.00
2018-09-20T17:15:06.930Z,3.97
2018-09-20T17:17:38.004Z,3.93
2018-09-20T17:20:09.791Z,3.43
2018-09-20T17:22:40.760Z,3.67
2018-09-20T17:25:11.947Z,3.40
2018-09-20T17:27:43.188Z,4.03
2018-09-20T17:30:14.250Z,4.43
2018-09-20T17:32:45.894Z,3.27
2018-09-20T17:35:17.789Z,4.43
2018-09-20T17:37:51.616Z,3.90
2018-09-20T17:40:24.046Z,3.83
2018-09-20T17:42:58.657Z,3.40
2018-09-20T17:47:56.065Z,3.93
2018-09-20T17:50:27.080Z,4.03
2018-09-20T17:52:58.697Z,3.60
2018-09-20T17:55:30.963Z,3.37
2018-09-20T17:58:03.120Z,3.50
2018-09-20T18:00:34.808Z,3.47
2018-09-20T18:03:06.209Z,3.47
2018-09-20T18:05:38.091Z,3.70
2018-09-20T18:08:10.269Z,3.33
2018-09-20T18:10:43.887Z,3.57
2018-09-20T18:13:15.333Z,3.13
2018-09-20T18:15:46.513Z,3.20
2018-09-20T18:18:18.030Z,3.20
2018-09-20T18:20:49.394Z,3.67
2018-09-20T18:23:22.553Z,2.87
2018-09-20T18:25:53.591Z,2.10
2018-09-20T18:28:24.647Z,2.43
2018-09-20T18:30:55.633Z,2.80
2018-09-20T18:33:26.660Z,1.67
2018-09-20T18:35:57.661Z,2.37
2018-09-20T18:38:28.896Z,2.63
2018-09-20T18:40:59.823Z,2.87
2018-09-20T18:43:30.792Z,2.23
2018-09-20T18:46:01.780Z,2.30
2018-09-20T18:48:32.838Z,2.63
2018-09-20T18:51:03.797Z,3.40
2018-09-20T18:53:35.141Z,2.67
2018-09-20T18:56:06.504Z,2.33
2018-09-20T18:58:38.197Z,1.80
2018-09-20T19:01:09.570Z,2.13
2018-09-20T19:03:40.976Z,2.00
2018-09-20T19:06:12.088Z,2.33
2018-09-20T19:08:43.232Z,2.00
2018-09-20T19:11:14.251Z,2.93
2018-09-20T19:13:45.875Z,2.07
2018-09-20T19:16:16.908Z,2.53
2018-09-20T19:18:48.274Z,2.50
2018-09-20T19:21:19.341Z,2.60
2018-09-20T19:23:50.507Z,2.13
2018-09-20T19:26:21.835Z,2.57
2018-09-20T19:28:53.133Z,2.53
2018-09-20T19:31:24.262Z,2.17
2018-09-20T19:33:55.281Z,2.53
2018-09-20T19:36:26.289Z,1.80
2018-09-20T19:38:57.534Z,2.57
2018-09-20T19:41:28.677Z,1.83
2018-09-20T19:43:59.965Z,2.40
2018-09-20T19:46:31.177Z,1.70
2018-09-20T19:49:02.372Z,2.37
2018-09-20T19:51:33.577Z,2.33
2018-09-20T19:54:04.676Z,1.77
2018-09-20T19:56:35.696Z,2.10
2018-09-20T19:59:07.261Z,1.87
2018-09-20T20:01:38.274Z,2.20
2018-09-20T20:04:10.759Z,2.87
2018-09-20T20:06:43.261Z,2.73
2018-09-20T20:09:16.541Z,2.40
2018-09-20T20:11:48.275Z,2.10
2018-09-20T20:14:19.292Z,2.10
2018-09-20T20:16:50.405Z,2.10
2018-09-20T20:19:23.390Z,2.07
2018-09-20T20:21:55.773Z,1.97
2018-09-20T20:24:29.002Z,2.20
2018-09-20T20:27:02.057Z,2.37
2018-09-20T20:29:33.662Z,1.90
2018-09-20T20:32:06.978Z,1.80
2018-09-20T20:34:41.916Z,2.10
2018-09-20T20:37:20.723Z,2.63
2018-09-20T20:39:58.050Z,2.40
2018-09-20T20:42:34.788Z,2.37
2018-09-20T20:45:15.488Z,3.20
2018-09-20T20:47:47.361Z,2.00
2018-09-20T20:50:20.599Z,2.67
2018-09-20T20:52:52.032Z,1.77
2018-09-20T20:55:26.672Z,2.23
2018-09-20T20:58:00.549Z,2.40
2018-09-20T21:00:31.586Z,2.53
2018-09-20T21:03:02.725Z,2.40
2018-09-20T21:09:47.735Z,2.00
2018-09-20T21:12:18.908Z,1.97
2018-09-20T21:14:50.369Z,1.60
2018-09-20T21:19:47.089Z,2.27
2018-09-20T21:22:18.128Z,2.17
2018-09-20T21:24:49.240Z,2.20
2018-09-20T21:27:20.900Z,2.17
2018-09-20T21:29:52.142Z,2.20
2018-09-20T21:32:23.382Z,2.43
2018-09-20T21:34:54.892Z,2.20
2018-09-20T21:37:26.077Z,2.33
2018-09-20T21:39:57.351Z,2.60
2018-09-20T21:42:28.384Z,2.10
2018-09-20T21:44:59.382Z,2.60
2018-09-20T21:47:30.446Z,2.30
2018-09-20T21:50:01.652Z,2.23
2018-09-20T21:52:32.778Z,2.90
2018-09-20T21:55:03.772Z,1.93
2018-09-20T21:57:35.043Z,2.80
2018-09-20T22:00:06.784Z,2.50
2018-09-20T22:02:42.351Z,3.13
2018-09-20T22:05:13.353Z,3.30
2018-09-20T22:07:44.379Z,3.50
2018-09-20T22:10:15.342Z,3.47
2018-09-20T22:12:46.350Z,3.50
2018-09-20T22:15:22.486Z,2.83
2018-09-20T22:17:54.084Z,3.07
2018-09-20T22:20:26.547Z,3.77
2018-09-20T22:22:57.849Z,2.83
2018-09-20T22:25:28.856Z,2.50
2018-09-20T22:27:59.839Z,3.13
2018-09-20T22:30:30.973Z,3.80
2018-09-20T22:33:02.068Z,3.33
2018-09-20T22:35:33.365Z,2.80
2018-09-20T22:38:04.349Z,2.93
2018-09-20T22:40:35.494Z,3.53
2018-09-20T22:43:06.597Z,3.17
2018-09-20T22:45:37.606Z,3.73
2018-09-20T22:48:08.850Z,3.10
2018-09-20T22:50:40.626Z,2.83
2018-09-20T22:53:13.544Z,3.20
2018-09-20T22:55:44.736Z,4.00
2018-09-20T23:00:41.525Z,3.33
2018-09-20T23:03:12.469Z,3.50
2018-09-20T23:05:43.429Z,3.30
2018-09-20T23:08:14.430Z,3.10
2018-09-20T23:10:45.382Z,2.53
2018-09-20T23:13:16.424Z,3.23
2018-09-20T23:15:47.900Z,3.47
2018-09-20T23:18:19.316Z,3.00
2018-09-20T23:20:50.429Z,3.37
2018-09-20T23:23:21.591Z,3.53
2018-09-20T23:25:53.252Z,3.07
2018-09-20T23:28:24.176Z,3.73
2018-09-20T23:30:55.250Z,3.80
2018-09-20T23:35:52.020Z,3.90
2018-09-20T23:38:23.174Z,3.93
2018-09-20T23:40:54.377Z,4.10
2018-09-20T23:43:25.645Z,4.53
2018-09-20T23:45:56.916Z,3.70
2018-09-20T23:48:28.690Z,3.93
2018-09-20T23:51:00.289Z,4.30
2018-09-20T23:53:31.497Z,3.70
2018-09-20T23:56:02.643Z,4.23
2018-09-20T23:58:34.070Z,4.63
